Time;durP1;ratioP1;P1;durP2;ratioP2;P2;SDS_P1;SDS_P2;PMS_P1;PMS_P2;Temp;Humidity;BMP_temperature;BMP_pressure;BME280_temperature;BME280_humidity;BME280_pressure;Samples;Min_cycle;Max_cycle;Signal;HPM_P1;HPM_P2
2023/04/13 00:01:10;;;;;;;2.28;0.80;;;;;;;7.10;78.99;99404.03;5130942;27;20114;-71
2023/04/13 00:03:38;;;;;;;3.05;0.70;;;;;;;7.11;79.12;99408.38;5147300;27;20040;-71
2023/04/13 00:06:09;;;;;;;3.08;0.60;;;;;;;7.11;78.56;99398.72;5131476;27;20043;-70
2023/04/13 00:08:37;;;;;;;2.00;0.57;;;;;;;7.09;79.05;99405.78;5104571;27;20234;-70
2023/04/13 00:11:06;;;;;;;1.42;0.65;;;;;;;7.07;79.06;99396.28;5125532;27;20051;-70
2023/04/13 00:13:39;;;;;;;3.72;0.90;;;;;;;7.06;79.35;99387.59;5145231;27;20039;-71
2023/04/13 00:16:11;;;;;;;2.57;0.83;;;;;;;7.04;79.59;99378.06;5134552;27;20063;-72
2023/04/13 00:18:38;;;;;;;5.40;1.35;;;;;;;6.98;80.07;99380.00;5143910;27;20333;-71
2023/04/13 00:21:06;;;;;;;4.45;0.68;;;;;;;6.97;80.78;99387.91;5137289;27;20043;-70
2023/04/13 00:23:36;;;;;;;5.43;0.90;;;;;;;6.89;80.91;99379.50;5131355;27;20035;-71
2023/04/13 00:26:04;;;;;;;3.65;0.80;;;;;;;6.83;81.58;99367.50;5126468;27;20115;-71
2023/04/13 00:28:32;;;;;;;2.85;1.08;;;;;;;6.79;82.39;99358.91;5145203;27;20499;-71
2023/04/13 00:30:59;;;;;;;3.50;0.77;;;;;;;6.74;82.68;99355.63;5140899;27;20119;-69
2023/04/13 00:33:26;;;;;;;2.65;0.85;;;;;;;6.74;82.91;99360.00;5134530;27;20040;-70
2023/04/13 00:35:53;;;;;;;3.05;0.50;;;;;;;6.73;83.02;99353.03;5111580;27;20546;-70
2023/04/13 00:38:19;;;;;;;4.10;0.80;;;;;;;6.72;83.40;99357.44;5142651;27;20083;-70
2023/04/13 00:40:46;;;;;;;2.13;0.80;;;;;;;6.75;82.97;99354.72;5149141;27;20050;-70
2023/04/13 00:43:15;;;;;;;2.83;0.70;;;;;;;6.76;82.99;99343.31;5138197;27;20051;-70
2023/04/13 00:45:43;;;;;;;2.85;0.90;;;;;;;6.78;83.42;99348.50;5128510;27;20038;-70
2023/04/13 00:48:11;;;;;;;2.22;0.70;;;;;;;6.80;83.44;99351.91;5125565;27;20122;-70
2023/04/13 00:50:41;;;;;;;3.45;0.88;;;;;;;6.82;83.45;99344.81;5109801;27;20032;-70
2023/04/13 00:53:12;;;;;;;6.15;1.02;;;;;;;6.84;83.65;99343.00;5096806;27;20039;-70
2023/04/13 00:55:41;;;;;;;2.17;0.85;;;;;;;6.88;83.65;99335.88;5110597;27;20044;-70
2023/04/13 00:58:09;;;;;;;2.95;0.80;;;;;;;6.91;83.63;99338.38;5136210;27;20058;-70
2023/04/13 01:00:37;;;;;;;3.08;0.80;;;;;;;6.93;83.68;99342.66;5145939;27;20135;-70
2023/04/13 01:03:08;;;;;;;2.00;0.73;;;;;;;6.94;83.91;99331.25;5146302;27;20491;-70
2023/04/13 01:05:52;;;;;;;3.88;0.90;;;;;;;6.97;83.77;99330.28;5138768;27;20338;-70
2023/04/13 01:08:35;;;;;;;1.42;0.60;;;;;;;6.98;83.88;99335.47;5110282;27;20070;-69
2023/04/13 01:11:40;;;;;;;3.28;0.80;;;;;;;7.00;83.99;99327.53;5125708;27;20139;-69
2023/04/13 01:14:23;;;;;;;3.50;0.70;;;;;;;7.03;84.16;99322.19;5112188;27;20828;-69
2023/04/13 01:16:56;;;;;;;5.57;0.88;;;;;;;7.04;84.05;99336.13;5140969;27;20065;-70
2023/04/13 01:19:32;;;;;;;2.20;0.68;;;;;;;7.00;84.16;99335.41;5127850;27;20616;-71
2023/04/13 01:22:03;;;;;;;4.10;0.80;;;;;;;7.02;84.61;99332.75;5117419;27;20148;-71
2023/04/13 01:24:52;;;;;;;3.35;0.90;;;;;;;7.03;84.74;99330.03;5109250;27;20049;-71
2023/04/13 01:27:41;;;;;;;2.80;0.98;;;;;;;7.02;85.10;99335.34;5135471;27;20035;-71
2023/04/13 01:30:22;;;;;;;5.57;1.02;;;;;;;7.01;85.32;99346.75;5120964;27;20048;-72
2023/04/13 01:32:54;;;;;;;4.78;1.15;;;;;;;7.00;85.35;99338.03;5095987;27;20511;-71
2023/04/13 01:35:24;;;;;;;2.45;0.75;;;;;;;7.01;85.57;99338.88;5123349;27;20036;-70
2023/04/13 01:37:52;;;;;;;3.03;0.70;;;;;;;7.03;85.53;99334.41;5112181;27;20956;-71
2023/04/13 01:40:29;;;;;;;3.38;0.80;;;;;;;7.03;85.87;99326.56;5125074;27;21129;-70
2023/04/13 01:42:57;;;;;;;3.63;0.75;;;;;;;7.06;85.54;99329.06;5106015;27;20047;-70
2023/04/13 01:45:44;;;;;;;4.05;0.98;;;;;;;7.05;85.35;99338.72;5109377;27;20593;-71
2023/04/13 01:48:28;;;;;;;3.95;1.02;;;;;;;7.03;85.64;99329.19;5133955;27;20039;-70
2023/04/13 01:51:15;;;;;;;4.38;1.10;;;;;;;7.08;85.84;99335.09;5127398;27;20142;-70
2023/04/13 01:54:01;;;;;;;2.67;0.90;;;;;;;7.06;85.79;99339.53;5119129;27;20047;-70
2023/04/13 01:56:29;;;;;;;3.85;0.90;;;;;;;7.07;85.77;99336.00;5134528;27;20036;-70
2023/04/13 01:59:01;;;;;;;2.95;0.90;;;;;;;7.09;86.08;99342.06;5109201;27;20054;-70
2023/04/13 02:01:29;;;;;;;3.60;0.95;;;;;;;7.08;86.22;99337.72;5113102;27;20049;-70
2023/04/13 02:03:58;;;;;;;4.13;0.90;;;;;;;7.09;86.22;99345.50;5109990;27;20042;-70
2023/04/13 02:06:29;;;;;;;4.07;0.70;;;;;;;7.08;86.26;99348.22;5118332;27;20478;-70
2023/04/13 02:08:58;;;;;;;6.05;1.10;;;;;;;7.10;86.36;99351.63;5120128;27;20036;-69
2023/04/13 02:11:27;;;;;;;4.35;0.80;;;;;;;7.07;86.44;99360.44;5095272;27;20040;-70
2023/04/13 02:13:56;;;;;;;2.17;0.82;;;;;;;7.07;86.91;99359.59;5128301;27;20598;-69
2023/04/13 02:16:24;;;;;;;3.65;0.82;;;;;;;7.05;86.86;99364.03;5128116;27;20142;-70
2023/04/13 02:18:51;;;;;;;4.15;0.88;;;;;;;7.02;87.47;99357.16;5093495;27;20044;-70
2023/04/13 02:21:19;;;;;;;4.25;0.90;;;;;;;7.01;87.77;99365.09;5109650;27;20040;-70
2023/04/13 02:23:46;;;;;;;6.93;1.10;;;;;;;6.99;87.82;99373.00;5110412;27;20459;-70
2023/04/13 02:26:15;;;;;;;5.40;1.45;;;;;;;6.97;87.87;99378.31;5101805;27;20147;-70
2023/04/13 02:28:42;;;;;;;3.40;1.00;;;;;;;6.90;88.10;99366.38;5117119;27;20135;-70
2023/04/13 02:31:09;;;;;;;3.10;1.20;;;;;;;6.86;88.22;99372.63;5109390;27;20032;-70
2023/04/13 02:33:37;;;;;;;4.47;0.90;;;;;;;6.85;88.81;99365.66;5111379;27;20035;-70
2023/04/13 02:36:05;;;;;;;4.07;0.90;;;;;;;6.82;89.08;99371.88;5107357;27;20040;-71
2023/04/13 02:38:36;;;;;;;4.90;1.20;;;;;;;6.82;89.45;99379.75;5124189;27;20057;-71
2023/04/13 02:41:21;;;;;;;5.45;1.10;;;;;;;6.80;89.64;99385.97;5123680;27;20422;-71
2023/04/13 02:43:49;;;;;;;5.72;1.00;;;;;;;6.80;89.81;99388.59;5139341;27;20841;-71
2023/04/13 02:46:18;;;;;;;4.90;1.10;;;;;;;6.79;90.08;99385.09;5129970;27;20036;-71
2023/04/13 02:48:47;;;;;;;6.20;1.00;;;;;;;6.80;90.14;99385.97;5114323;27;20117;-71
2023/04/13 02:51:14;;;;;;;5.47;1.13;;;;;;;6.80;90.32;99388.59;5121300;27;20055;-71
2023/04/13 02:53:42;;;;;;;4.65;1.17;;;;;;;6.78;90.25;99406.13;5115895;27;20131;-71
2023/04/13 02:56:10;;;;;;;4.57;1.30;;;;;;;6.79;90.35;99400.81;5103571;27;20049;-71
2023/04/13 02:58:37;;;;;;;3.20;1.20;;;;;;;6.81;90.38;99403.41;5120740;27;20031;-70
2023/04/13 03:01:10;;;;;;;3.97;1.20;;;;;;;6.81;90.59;99417.34;5129119;27;20114;-70
2023/04/13 03:03:37;;;;;;;4.10;1.10;;;;;;;6.80;90.15;99418.25;5111603;27;20067;-70
2023/04/13 03:06:05;;;;;;;7.70;1.30;;;;;;;6.80;90.54;99422.63;5144283;27;20114;-72
2023/04/13 03:08:45;;;;;;;3.05;1.08;;;;;;;6.81;90.52;99419.13;5131116;27;20143;-70
2023/04/13 03:11:19;;;;;;;4.82;1.08;;;;;;;6.83;90.51;99432.97;5124177;27;20152;-69
2023/04/13 03:13:52;;;;;;;4.22;1.10;;;;;;;6.83;90.73;99439.09;5104570;27;20046;-70
2023/04/13 03:16:20;;;;;;;4.80;1.23;;;;;;;6.85;90.66;99441.66;5128366;27;20043;-69
2023/04/13 03:18:47;;;;;;;3.80;1.20;;;;;;;6.84;90.54;99451.28;5131592;27;20045;-70
2023/04/13 03:21:14;;;;;;;8.15;1.60;;;;;;;6.87;90.69;99457.31;5111542;27;20537;-71
2023/04/13 03:23:57;;;;;;;3.92;1.42;;;;;;;6.84;90.60;99459.13;5120785;27;20050;-71
2023/04/13 03:26:24;;;;;;;6.20;1.45;;;;;;;6.81;90.66;99463.66;5126491;27;20572;-72
2023/04/13 03:28:54;;;;;;;3.47;1.10;;;;;;;6.80;91.00;99456.69;5111720;27;20039;-71
2023/04/13 03:31:22;;;;;;;3.35;1.33;;;;;;;6.76;91.19;99469.06;5131265;27;20118;-70
2023/04/13 03:33:51;;;;;;;3.67;1.52;;;;;;;6.77;91.51;99481.22;5131236;27;20065;-71
2023/04/13 03:36:19;;;;;;;6.18;1.33;;;;;;;6.78;91.42;99479.47;5123240;27;20040;-71
2023/04/13 03:38:46;;;;;;;5.75;1.73;;;;;;;6.77;91.57;99481.22;5121102;27;20051;-71
2023/04/13 03:41:14;;;;;;;6.07;1.40;;;;;;;6.75;91.60;99480.44;5135518;27;20043;-71
2023/04/13 03:43:45;;;;;;;6.65;1.30;;;;;;;6.76;91.95;99483.91;5112073;27;20051;-71
2023/04/13 03:46:12;;;;;;;4.80;1.50;;;;;;;6.74;91.80;99489.19;5113900;27;20532;-71
2023/04/13 03:48:40;;;;;;;4.57;1.20;;;;;;;6.78;91.41;99492.56;5128120;27;20041;-71
2023/04/13 03:51:10;;;;;;;2.28;0.93;;;;;;;6.72;91.33;99496.25;5125104;27;20046;-70
2023/04/13 03:53:47;;;;;;;6.57;1.50;;;;;;;6.71;91.33;99505.00;5119347;27;20046;-71
2023/04/13 03:56:17;;;;;;;3.13;1.00;;;;;;;6.70;91.19;99500.69;5127765;27;20514;-69
2023/04/13 03:58:44;;;;;;;4.72;1.50;;;;;;;6.68;91.55;99505.13;5129331;27;20142;-69
2023/04/13 04:01:15;;;;;;;2.80;1.40;;;;;;;6.65;91.41;99511.31;5135101;27;20479;-70
2023/04/13 04:03:46;;;;;;;3.88;1.27;;;;;;;6.64;91.81;99511.38;5108772;27;20466;-69
2023/04/13 04:06:13;;;;;;;6.10;1.38;;;;;;;6.67;92.00;99519.13;5127433;27;20537;-70
2023/04/13 04:08:49;;;;;;;5.03;1.40;;;;;;;6.68;91.55;99524.31;5122232;27;20043;-69
2023/04/13 04:11:26;;;;;;;3.30;1.40;;;;;;;6.69;91.69;99533.03;5112745;27;20113;-69
2023/04/13 04:13:54;;;;;;;4.10;1.15;;;;;;;6.66;91.57;99527.91;5118805;27;20047;-68
2023/04/13 04:16:23;;;;;;;6.82;1.55;;;;;;;6.63;91.29;99528.00;5131161;27;20507;-69
2023/04/13 04:18:56;;;;;;;5.75;1.77;;;;;;;6.55;90.90;99540.53;5110375;27;20043;-69
2023/04/13 04:21:33;;;;;;;5.13;1.50;;;;;;;6.43;91.00;99545.25;5109814;27;20039;-69
2023/04/13 04:24:05;;;;;;;3.50;1.70;;;;;;;6.33;91.16;99542.09;5128445;27;20043;-68
2023/04/13 04:26:36;;;;;;;3.70;1.67;;;;;;;6.26;91.01;99551.06;5124629;27;20051;-69
2023/04/13 04:29:07;;;;;;;4.85;1.73;;;;;;;6.17;91.24;99541.72;5103351;27;20046;-70
2023/04/13 04:31:42;;;;;;;5.38;1.90;;;;;;;6.11;91.52;99543.69;5138119;27;20036;-70
2023/04/13 04:34:13;;;;;;;2.42;1.50;;;;;;;6.03;91.51;99557.03;5125373;27;20039;-70
2023/04/13 04:36:44;;;;;;;6.82;2.67;;;;;;;5.98;91.75;99554.53;5151607;27;20035;-71
2023/04/13 04:39:13;;;;;;;7.18;2.33;;;;;;;5.93;92.03;99561.66;5131533;27;20532;-69
2023/04/13 04:41:53;;;;;;;3.63;2.17;;;;;;;5.89;92.18;99557.47;5153516;27;20031;-70
2023/04/13 04:44:29;;;;;;;5.33;2.50;;;;;;;5.85;92.40;99564.53;5133377;27;20031;-75
2023/04/13 04:46:59;;;;;;;8.18;2.67;;;;;;;5.84;92.80;99564.56;5104560;27;20576;-69
2023/04/13 04:49:27;;;;;;;4.63;2.55;;;;;;;5.90;93.24;99564.41;5149991;27;20088;-68
2023/04/13 04:51:56;;;;;;;7.75;2.78;;;;;;;6.03;94.17;99575.38;5126336;27;20104;-67
2023/04/13 04:54:24;;;;;;;6.72;2.90;;;;;;;6.18;94.85;99577.47;5129206;27;20043;-68
2023/04/13 04:56:52;;;;;;;10.60;3.63;;;;;;;6.31;94.24;99577.91;5127920;27;20564;-68
2023/04/13 04:59:20;;;;;;;10.60;3.13;;;;;;;6.39;93.97;99585.53;5128559;27;20043;-68
2023/04/13 05:01:55;;;;;;;6.43;3.08;;;;;;;6.43;93.65;99594.13;5123241;27;20175;-69
2023/04/13 05:04:22;;;;;;;7.63;3.00;;;;;;;6.50;93.73;99590.44;5125782;27;20039;-68
2023/04/13 05:06:51;;;;;;;7.57;2.88;;;;;;;6.62;93.41;99592.59;5121063;27;20024;-68
2023/04/13 05:09:22;;;;;;;8.95;3.30;;;;;;;7.02;92.35;99600.03;5149961;27;20043;-68
2023/04/13 05:11:52;;;;;;;6.50;3.10;;;;;;;7.98;89.67;99606.94;5147696;27;20084;-68
2023/04/13 05:14:20;;;;;;;6.50;2.75;;;;;;;8.79;86.61;99599.31;5116880;27;20548;-68
2023/04/13 05:16:47;;;;;;;6.85;2.60;;;;;;;9.36;84.47;99609.97;5136663;27;20543;-68
2023/04/13 05:19:22;;;;;;;7.90;2.60;;;;;;;9.37;83.12;99616.09;5125262;27;20081;-67
2023/04/13 05:22:00;;;;;;;5.25;2.70;;;;;;;9.46;82.39;99623.56;5135282;27;20039;-70
2023/04/13 05:24:32;;;;;;;4.93;2.67;;;;;;;10.04;80.06;99619.16;5125559;27;20035;-70
2023/04/13 05:27:02;;;;;;;6.20;2.70;;;;;;;10.83;77.10;99621.47;5109559;27;20105;-70
2023/04/13 05:29:30;;;;;;;11.75;2.88;;;;;;;11.55;74.34;99628.34;5111276;27;20146;-68
2023/04/13 05:32:01;;;;;;;4.50;2.30;;;;;;;11.58;72.02;99633.44;5152382;27;20932;-68
2023/04/13 05:34:29;;;;;;;6.55;2.35;;;;;;;10.61;74.17;99637.50;5110548;27;20084;-68
2023/04/13 05:37:05;;;;;;;6.40;2.13;;;;;;;9.81;76.44;99641.31;5127258;27;20043;-70
2023/04/13 05:39:32;;;;;;;5.70;2.50;;;;;;;9.27;78.23;99645.44;5111630;27;20051;-68
2023/04/13 05:42:01;;;;;;;7.53;2.80;;;;;;;8.88;79.81;99650.63;5143575;27;20043;-69
2023/04/13 05:44:32;;;;;;;4.53;2.58;;;;;;;8.65;80.55;99663.81;5131150;27;20035;-69
2023/04/13 05:47:01;;;;;;;6.00;2.97;;;;;;;8.43;81.38;99660.31;5108808;27;20040;-68
2023/04/13 05:49:31;;;;;;;7.55;2.90;;;;;;;8.33;82.28;99673.81;5126994;27;20042;-69
2023/04/13 05:51:59;;;;;;;5.45;2.95;;;;;;;8.26;83.23;99674.97;5144806;27;20039;-69
2023/04/13 05:54:38;;;;;;;5.65;3.03;;;;;;;8.18;83.91;99684.94;5128163;27;20517;-69
2023/04/13 05:57:05;;;;;;;6.60;3.20;;;;;;;8.13;84.17;99690.38;5128717;27;20074;-68
2023/04/13 05:59:32;;;;;;;5.78;2.97;;;;;;;8.08;84.62;99695.78;5143594;27;20845;-69
2023/04/13 06:02:01;;;;;;;4.90;3.03;;;;;;;8.06;84.90;99700.25;5127652;27;20526;-69
2023/04/13 06:04:30;;;;;;;6.78;3.63;;;;;;;8.07;85.15;99708.94;5127432;27;20573;-69
2023/04/13 06:06:58;;;;;;;7.30;3.42;;;;;;;8.04;85.04;99709.06;5125679;27;20040;-69
2023/04/13 06:09:26;;;;;;;5.72;3.25;;;;;;;8.07;84.88;99704.56;5125346;27;20035;-69
2023/04/13 06:11:53;;;;;;;6.32;3.25;;;;;;;8.15;84.75;99717.38;5148865;27;20047;-69
2023/04/13 06:14:21;;;;;;;5.20;3.60;;;;;;;8.29;84.90;99719.47;5145066;27;20039;-69
2023/04/13 06:16:48;;;;;;;6.10;3.70;;;;;;;8.48;84.63;99724.91;5134129;27;20047;-69
2023/04/13 06:19:15;;;;;;;6.15;3.58;;;;;;;8.70;84.41;99726.69;5136422;27;20046;-69
2023/04/13 06:21:42;;;;;;;4.68;2.80;;;;;;;8.89;84.21;99732.06;5137179;27;20035;-69
2023/04/13 06:24:09;;;;;;;8.38;3.05;;;;;;;8.94;83.88;99737.13;5112683;27;20035;-68
2023/04/13 06:26:38;;;;;;;5.10;2.78;;;;;;;8.84;84.09;99744.50;5112873;27;20039;-68
2023/04/13 06:29:05;;;;;;;7.35;2.92;;;;;;;8.74;83.30;99745.81;5113577;27;20032;-69
2023/04/13 06:31:40;;;;;;;8.23;3.00;;;;;;;8.56;83.48;99748.25;5121470;27;20115;-69
2023/04/13 06:34:12;;;;;;;5.30;2.50;;;;;;;8.43;83.46;99739.09;5116845;27;20040;-69
2023/04/13 06:36:39;;;;;;;6.38;2.38;;;;;;;8.34;83.56;99754.31;5125718;27;20040;-69
2023/04/13 06:39:09;;;;;;;3.97;2.10;;;;;;;8.23;83.82;99761.72;5130493;27;20047;-69
2023/04/13 06:41:36;;;;;;;3.38;1.85;;;;;;;8.14;84.05;99756.84;5114575;27;20097;-69
2023/04/13 06:44:19;;;;;;;5.35;2.08;;;;;;;8.04;84.47;99759.81;5114737;27;20093;-68
2023/04/13 06:46:56;;;;;;;3.53;1.90;;;;;;;8.03;84.61;99762.50;5124899;27;20479;-68
2023/04/13 06:49:26;;;;;;;4.80;2.03;;;;;;;8.08;84.41;99761.41;5127763;27;20259;-68
2023/04/13 06:51:55;;;;;;;3.25;1.90;;;;;;;8.15;83.97;99763.78;5112743;27;20040;-68
2023/04/13 06:54:23;;;;;;;3.10;1.60;;;;;;;8.26;84.29;99769.50;5137650;27;20031;-69
2023/04/13 06:56:56;;;;;;;6.47;1.92;;;;;;;8.45;84.46;99771.44;5121622;27;20036;-69
2023/04/13 06:59:23;;;;;;;3.63;2.08;;;;;;;8.45;84.11;99767.00;5133945;27;20059;-68
2023/04/13 07:01:51;;;;;;;4.93;1.90;;;;;;;8.40;84.12;99779.47;5130444;27;20036;-69
2023/04/13 07:04:18;;;;;;;4.78;1.80;;;;;;;8.39;84.51;99777.78;5098317;27;20083;-68
2023/04/13 07:06:46;;;;;;;6.00;1.80;;;;;;;8.46;84.93;99784.50;5133322;27;20528;-68
2023/04/13 07:09:14;;;;;;;6.43;1.88;;;;;;;8.54;84.87;99790.34;5115912;27;20047;-69
2023/04/13 07:11:41;;;;;;;7.97;2.40;;;;;;;8.54;84.63;99798.25;5116080;27;20621;-69
2023/04/13 07:14:09;;;;;;;4.65;2.08;;;;;;;8.48;84.42;99795.00;5132551;27;20931;-69
2023/04/13 07:16:36;;;;;;;4.88;2.10;;;;;;;8.39;84.85;99798.78;5112225;27;20521;-69
2023/04/13 07:19:03;;;;;;;6.15;2.33;;;;;;;8.31;84.63;99804.31;5130646;27;21084;-70
2023/04/13 07:21:32;;;;;;;4.90;2.47;;;;;;;8.20;84.92;99801.22;5112234;27;20689;-69
2023/04/13 07:24:04;;;;;;;4.22;2.15;;;;;;;8.16;85.00;99811.00;5112027;27;20515;-69
2023/04/13 07:26:33;;;;;;;7.10;2.60;;;;;;;8.14;85.29;99807.56;5112787;27;20036;-70
2023/04/13 07:29:00;;;;;;;6.20;2.45;;;;;;;8.14;85.47;99812.81;5095110;27;20090;-69
2023/04/13 07:31:33;;;;;;;4.45;2.25;;;;;;;8.18;85.28;99805.69;5115120;27;20090;-69
2023/04/13 07:34:01;;;;;;;4.72;2.55;;;;;;;8.18;85.20;99809.16;5130734;27;21263;-69
2023/04/13 07:36:33;;;;;;;4.63;2.60;;;;;;;8.19;85.18;99816.13;5132059;27;20041;-69
2023/04/13 07:39:08;;;;;;;5.60;2.55;;;;;;;8.28;85.09;99817.56;5132635;27;20741;-69
2023/04/13 07:41:38;;;;;;;8.10;3.10;;;;;;;8.38;84.68;99815.44;5115937;27;20533;-69
2023/04/13 07:44:08;;;;;;;8.60;3.10;;;;;;;8.46;84.64;99820.41;5128492;27;20114;-69
2023/04/13 07:46:37;;;;;;;10.50;3.10;;;;;;;8.65;83.92;99824.09;5111599;27;20043;-69
2023/04/13 07:49:04;;;;;;;6.78;3.05;;;;;;;8.81;83.35;99829.59;5110630;27;20478;-69
2023/04/13 07:51:34;;;;;;;7.07;3.25;;;;;;;9.04;83.02;99838.38;5094840;27;20496;-69
2023/04/13 07:54:01;;;;;;;7.80;3.20;;;;;;;9.23;82.39;99838.44;5111667;27;20166;-69
2023/04/13 07:56:31;;;;;;;6.57;2.80;;;;;;;9.34;81.95;99838.03;5112039;27;20036;-69
2023/04/13 07:59:00;;;;;;;6.13;2.95;;;;;;;9.44;81.88;99849.88;5113085;27;20085;-68
2023/04/13 08:01:27;;;;;;;9.02;3.35;;;;;;;9.48;81.67;99845.34;5128442;27;20127;-68
2023/04/13 08:03:59;;;;;;;7.88;2.85;;;;;;;9.57;81.32;99847.59;5111881;27;20079;-68
2023/04/13 08:06:27;;;;;;;8.23;2.92;;;;;;;9.67;80.66;99863.00;5132302;27;20042;-68
2023/04/13 08:08:54;;;;;;;7.18;2.70;;;;;;;9.74;80.55;99856.53;5115199;27;20039;-69
2023/04/13 08:11:22;;;;;;;9.10;2.92;;;;;;;9.81;80.54;99868.53;5131492;27;20042;-68
2023/04/13 08:13:55;;;;;;;8.45;2.90;;;;;;;9.88;79.68;99874.38;5124625;27;20071;-69
2023/04/13 08:16:22;;;;;;;7.00;2.90;;;;;;;9.93;78.64;99880.31;5110879;27;20043;-68
2023/04/13 08:18:50;;;;;;;9.40;2.90;;;;;;;9.95;78.68;99876.69;5110095;27;20793;-68
2023/04/13 08:21:22;;;;;;;6.47;2.90;;;;;;;10.03;77.97;99879.00;5111458;27;20093;-69
2023/04/13 08:23:49;;;;;;;7.78;3.53;;;;;;;10.09;77.81;99886.63;5111853;27;20028;-68
2023/04/13 08:26:19;;;;;;;5.40;2.88;;;;;;;10.07;77.24;99884.97;5129759;27;20036;-70
2023/04/13 08:28:47;;;;;;;8.25;3.08;;;;;;;9.99;78.02;99897.63;5118115;27;20035;-68
2023/04/13 08:31:14;;;;;;;8.10;2.95;;;;;;;9.94;78.18;99896.03;5131787;27;20566;-68
2023/04/13 08:33:47;;;;;;;8.50;3.00;;;;;;;9.93;77.52;99904.84;5127193;27;20039;-69
2023/04/13 08:36:16;;;;;;;10.32;3.15;;;;;;;9.98;77.23;99914.34;5129819;27;20047;-68
2023/04/13 08:38:49;;;;;;;9.15;2.72;;;;;;;10.01;76.78;99909.78;5128557;27;20060;-68
2023/04/13 08:41:19;;;;;;;5.45;2.35;;;;;;;10.06;75.01;99931.53;5110307;27;20112;-67
2023/04/13 08:43:50;;;;;;;7.70;2.80;;;;;;;10.10;75.86;99927.00;5110448;27;20074;-68
2023/04/13 08:46:20;;;;;;;6.88;2.70;;;;;;;10.14;75.53;99928.56;5110355;27;20599;-68
2023/04/13 08:48:53;;;;;;;5.50;2.47;;;;;;;10.30;75.57;99934.00;5093010;27;20506;-68
2023/04/13 08:51:30;;;;;;;12.88;2.88;;;;;;;10.53;74.47;99932.19;5110425;27;20047;-68
2023/04/13 08:53:58;;;;;;;10.60;2.83;;;;;;;10.70;74.34;99947.25;5076400;27;20892;-68
2023/04/13 08:56:34;;;;;;;11.27;2.85;;;;;;;10.88;74.07;99940.28;5095156;27;20446;-68
2023/04/13 08:59:19;;;;;;;8.15;3.08;;;;;;;11.13;73.41;99947.91;5125596;27;20100;-68
2023/04/13 09:01:49;;;;;;;7.25;2.40;;;;;;;11.29;71.96;99952.47;5149652;27;20035;-69
2023/04/13 09:04:21;;;;;;;14.02;3.17;;;;;;;11.42;70.48;99955.34;5123088;27;20039;-69
2023/04/13 09:06:54;;;;;;;9.27;2.33;;;;;;;11.42;70.86;99960.63;5094695;27;20081;-69
2023/04/13 09:09:24;;;;;;;8.68;2.55;;;;;;;11.32;70.60;99966.34;5110543;27;20043;-69
2023/04/13 09:11:51;;;;;;;10.55;2.97;;;;;;;11.18;70.10;99979.34;5109737;27;20900;-69
2023/04/13 09:14:21;;;;;;;14.68;2.88;;;;;;;11.09;70.51;99982.44;5140678;27;20035;-69
2023/04/13 09:16:51;;;;;;;9.90;2.20;;;;;;;11.09;70.17;99980.63;5131304;27;20044;-69
2023/04/13 09:19:32;;;;;;;11.02;2.58;;;;;;;11.06;70.76;99993.94;5131135;27;20511;-69
2023/04/13 09:22:13;;;;;;;9.63;2.47;;;;;;;11.07;70.93;99995.66;5130920;27;20035;-69
2023/04/13 09:24:40;;;;;;;12.80;2.58;;;;;;;11.14;70.50;100005.00;5149602;27;20039;-69
2023/04/13 09:27:22;;;;;;;8.10;2.53;;;;;;;11.27;70.69;100010.59;5130197;27;20542;-70
2023/04/13 09:29:51;;;;;;;11.23;2.63;;;;;;;11.38;69.56;100011.88;5149734;27;20027;-69
2023/04/13 09:32:27;;;;;;;11.90;2.78;;;;;;;11.55;68.97;100019.00;5130110;27;20036;-69
2023/04/13 09:35:03;;;;;;;9.30;2.50;;;;;;;11.68;68.74;100017.47;5117946;27;20158;-69
2023/04/13 09:37:31;;;;;;;7.93;2.30;;;;;;;11.78;67.34;100029.28;5127422;27;20108;-68
2023/04/13 09:40:19;;;;;;;9.18;2.38;;;;;;;11.90;66.72;100030.50;5109648;27;20044;-69
2023/04/13 09:43:04;;;;;;;10.77;2.88;;;;;;;11.99;66.25;100025.72;5132576;27;20040;-69
2023/04/13 09:45:39;;;;;;;8.73;2.08;;;;;;;12.01;66.64;100037.91;5109901;27;20043;-69
2023/04/13 09:48:21;;;;;;;9.98;2.30;;;;;;;12.00;66.71;100038.84;5109699;27;20076;-69
2023/04/13 09:51:05;;;;;;;12.57;2.30;;;;;;;11.92;65.31;100046.25;5127812;27;20036;-69
2023/04/13 09:53:46;;;;;;;9.60;2.38;;;;;;;11.75;65.63;100047.06;5128002;27;20122;-69
2023/04/13 09:56:15;;;;;;;10.30;2.47;;;;;;;11.75;64.79;100040.00;5110469;27;20590;-69
2023/04/13 09:58:47;;;;;;;8.65;1.77;;;;;;;11.71;64.59;100051.66;5127922;27;20044;-69
2023/04/13 10:01:14;;;;;;;9.70;2.10;;;;;;;11.61;65.24;100047.72;5128371;27;20027;-69
2023/04/13 10:03:42;;;;;;;12.45;2.03;;;;;;;11.50;65.59;100058.78;5126699;27;20081;-69
2023/04/13 10:06:10;;;;;;;9.48;2.38;;;;;;;11.40;65.70;100057.50;5130401;27;20035;-69
2023/04/13 10:08:40;;;;;;;10.90;2.08;;;;;;;11.32;65.57;100063.97;5130396;27;20456;-69
2023/04/13 10:11:12;;;;;;;11.05;2.30;;;;;;;11.27;66.20;100068.63;5148572;27;20872;-69
2023/04/13 10:13:54;;;;;;;8.43;2.25;;;;;;;11.23;65.50;100064.41;5142384;27;20035;-69
2023/04/13 10:16:32;;;;;;;7.07;1.73;;;;;;;11.24;65.27;100070.56;5148943;27;20070;-69
2023/04/13 10:19:08;;;;;;;16.65;2.30;;;;;;;11.33;65.96;100080.69;5146218;27;20415;-69
2023/04/13 10:21:44;;;;;;;10.95;2.03;;;;;;;11.54;65.64;100075.34;5139388;27;20935;-69
2023/04/13 10:24:12;;;;;;;7.80;1.80;;;;;;;11.73;65.27;100081.47;5127902;27;21115;-69
2023/04/13 10:26:42;;;;;;;10.02;2.30;;;;;;;11.92;65.21;100081.44;5127900;27;20546;-69
2023/04/13 10:29:12;;;;;;;13.07;1.80;;;;;;;12.08;64.80;100091.31;5114425;27;20036;-69
2023/04/13 10:31:45;;;;;;;8.27;1.80;;;;;;;12.26;63.19;100085.13;5146189;27;20092;-69
2023/04/13 10:34:28;;;;;;;11.35;2.63;;;;;;;12.52;62.24;100082.94;5122910;27;20047;-69
2023/04/13 10:37:02;;;;;;;9.63;1.65;;;;;;;12.75;61.88;100083.56;5108839;27;20115;-69
2023/04/13 10:39:32;;;;;;;8.27;1.80;;;;;;;12.79;61.36;100095.72;5127539;27;20105;-69
2023/04/13 10:42:08;;;;;;;7.88;1.70;;;;;;;12.86;59.72;100109.50;5115924;27;20896;-69
2023/04/13 10:44:48;;;;;;;9.32;1.65;;;;;;;12.99;59.49;100115.84;5128038;27;20047;-69
2023/04/13 10:47:19;;;;;;;10.93;1.80;;;;;;;13.24;59.35;100103.97;5147249;27;20040;-69
2023/04/13 10:49:50;;;;;;;12.90;1.70;;;;;;;13.37;58.59;100114.75;5111280;27;20046;-70
2023/04/13 10:52:17;;;;;;;9.32;1.88;;;;;;;13.31;56.80;100101.84;5108351;27;20511;-69
2023/04/13 10:54:44;;;;;;;8.73;1.75;;;;;;;13.16;58.35;100109.66;5137206;27;20111;-69
2023/04/13 10:57:13;;;;;;;9.20;1.75;;;;;;;12.95;58.49;100122.25;5125641;27;20119;-69
2023/04/13 10:59:54;;;;;;;6.57;2.13;;;;;;;12.81;59.31;100117.66;5146389;27;20092;-69
2023/04/13 11:02:30;;;;;;;9.77;2.63;;;;;;;12.86;59.49;100120.06;5138287;27;20575;-69
2023/04/13 11:04:59;;;;;;;8.43;2.60;;;;;;;12.95;59.61;100122.25;5134781;27;20035;-69
2023/04/13 11:07:27;;;;;;;11.85;1.80;;;;;;;13.01;59.65;100132.50;5130233;27;20293;-69
2023/04/13 11:09:57;;;;;;;7.50;1.95;;;;;;;13.02;59.17;100144.78;5130430;27;20097;-70
2023/04/13 11:12:27;;;;;;;10.90;2.60;;;;;;;13.12;59.06;100139.88;5124180;27;20039;-70
2023/04/13 11:14:54;;;;;;;6.05;1.85;;;;;;;13.17;57.98;100143.13;5144408;27;20108;-69
2023/04/13 11:17:21;;;;;;;9.27;2.20;;;;;;;13.16;58.23;100141.41;5132352;27;20036;-69
2023/04/13 11:19:53;;;;;;;10.02;2.50;;;;;;;13.27;59.17;100150.59;5150172;27;20047;-69
2023/04/13 11:22:22;;;;;;;8.10;2.00;;;;;;;13.35;58.15;100151.03;5126241;27;20039;-69
2023/04/13 11:24:50;;;;;;;10.20;2.20;;;;;;;13.41;57.65;100147.25;5112786;27;20385;-69
2023/04/13 11:27:23;;;;;;;11.15;2.45;;;;;;;13.46;58.21;100154.00;5130614;27;20117;-69
2023/04/13 11:29:58;;;;;;;11.30;2.42;;;;;;;13.50;57.59;100167.94;5128251;27;20048;-69
2023/04/13 11:32:26;;;;;;;5.53;1.80;;;;;;;13.39;55.75;100167.59;5112696;27;20518;-70
2023/04/13 11:35:04;;;;;;;15.70;2.80;;;;;;;13.32;55.94;100175.03;5122222;27;20036;-70
2023/04/13 11:37:51;;;;;;;10.70;3.10;;;;;;;13.33;57.45;100176.72;5150448;27;20524;-69
2023/04/13 11:40:24;;;;;;;10.57;2.53;;;;;;;13.43;57.90;100175.34;5125809;27;20042;-69
2023/04/13 11:42:57;;;;;;;13.35;2.10;;;;;;;13.59;57.00;100177.19;5132397;27;20035;-70
2023/04/13 11:45:28;;;;;;;6.90;1.90;;;;;;;13.70;55.71;100179.25;5132653;27;20031;-70
2023/04/13 11:47:56;;;;;;;8.82;1.95;;;;;;;13.80;56.79;100183.97;5151349;27;20088;-70
2023/04/13 11:50:25;;;;;;;8.15;1.95;;;;;;;13.96;55.73;100199.03;5143166;27;20032;-70
2023/04/13 11:52:57;;;;;;;7.32;1.67;;;;;;;14.02;53.75;100200.50;5128902;27;20548;-69
2023/04/13 11:55:25;;;;;;;8.88;1.98;;;;;;;14.10;54.51;100192.97;5134973;27;20263;-70